sensor_id;sensor_type;location;lat;lon;timestamp;P1;durP1;ratioP1;P2;durP2;ratioP2
3997;SDS011;61314;53.444;9.902;2022-12-24T00:02:21;34.05;;;17.25;;
3997;SDS011;61314;53.444;9.902;2022-12-24T00:04:48;30.67;;;15.20;;
3997;SDS011;61314;53.444;9.902;2022-12-24T00:07:22;37.03;;;17.23;;
3997;SDS011;61314;53.444;9.902;2022-12-24T00:09:49;33.45;;;15.73;;
3997;SDS011;61314;53.444;9.902;2022-12-24T00:12:16;35.30;;;16.55;;
3997;SDS011;61314;53.444;9.902;2022-12-24T00:14:43;31.90;;;14.80;;
3997;SDS011;61314;53.444;9.902;2022-12-24T00:17:10;36.40;;;16.88;;
3997;SDS011;61314;53.444;9.902;2022-12-24T00:19:37;33.10;;;16.25;;
3997;SDS011;61314;53.444;9.902;2022-12-24T00:22:04;34.63;;;15.98;;
3997;SDS011;61314;53.444;9.902;2022-12-24T00:24:31;36.70;;;16.20;;
3997;SDS011;61314;53.444;9.902;2022-12-24T00:26:57;41.75;;;15.63;;
3997;SDS011;61314;53.444;9.902;2022-12-24T00:29:24;40.85;;;17.42;;
3997;SDS011;61314;53.444;9.902;2022-12-24T00:31:51;42.58;;;14.95;;
3997;SDS011;61314;53.444;9.902;2022-12-24T00:34:18;35.85;;;16.60;;
3997;SDS011;61314;53.444;9.902;2022-12-24T00:36:45;32.25;;;14.55;;
3997;SDS011;61314;53.444;9.902;2022-12-24T00:39:12;34.05;;;16.20;;
3997;SDS011;61314;53.444;9.902;2022-12-24T00:41:39;31.45;;;13.30;;
3997;SDS011;61314;53.444;9.902;2022-12-24T00:44:06;27.50;;;13.93;;
3997;SDS011;61314;53.444;9.902;2022-12-24T00:46:37;31.13;;;15.02;;
3997;SDS011;61314;53.444;9.902;2022-12-24T00:49:05;32.35;;;14.32;;
3997;SDS011;61314;53.444;9.902;2022-12-24T00:51:33;23.98;;;13.52;;
3997;SDS011;61314;53.444;9.902;2022-12-24T00:54:01;32.40;;;15.30;;
3997;SDS011;61314;53.444;9.902;2022-12-24T00:56:28;27.38;;;14.95;;
3997;SDS011;61314;53.444;9.902;2022-12-24T00:58:55;33.47;;;15.38;;
3997;SDS011;61314;53.444;9.902;2022-12-24T01:01:22;34.60;;;16.10;;
3997;SDS011;61314;53.444;9.902;2022-12-24T01:03:50;31.02;;;14.27;;
3997;SDS011;61314;53.444;9.902;2022-12-24T01:06:19;32.58;;;14.45;;
3997;SDS011;61314;53.444;9.902;2022-12-24T01:08:49;33.80;;;16.10;;
3997;SDS011;61314;53.444;9.902;2022-12-24T01:11:16;34.13;;;15.35;;
3997;SDS011;61314;53.444;9.902;2022-12-24T01:13:43;29.05;;;14.73;;
3997;SDS011;61314;53.444;9.902;2022-12-24T01:16:17;37.90;;;16.13;;
3997;SDS011;61314;53.444;9.902;2022-12-24T01:18:45;32.65;;;15.05;;
3997;SDS011;61314;53.444;9.902;2022-12-24T01:21:12;30.50;;;15.30;;
3997;SDS011;61314;53.444;9.902;2022-12-24T01:23:39;39.13;;;16.38;;
3997;SDS011;61314;53.444;9.902;2022-12-24T01:26:06;37.70;;;17.52;;
3997;SDS011;61314;53.444;9.902;2022-12-24T01:28:33;37.10;;;16.02;;
3997;SDS011;61314;53.444;9.902;2022-12-24T01:31:00;35.72;;;15.43;;
3997;SDS011;61314;53.444;9.902;2022-12-24T01:33:28;33.15;;;16.52;;
3997;SDS011;61314;53.444;9.902;2022-12-24T01:35:55;35.08;;;15.63;;
3997;SDS011;61314;53.444;9.902;2022-12-24T01:38:22;38.75;;;17.92;;
3997;SDS011;61314;53.444;9.902;2022-12-24T01:40:49;40.53;;;16.17;;
3997;SDS011;61314;53.444;9.902;2022-12-24T01:43:34;45.65;;;16.52;;
3997;SDS011;61314;53.444;9.902;2022-12-24T01:46:02;43.15;;;16.90;;
3997;SDS011;61314;53.444;9.902;2022-12-24T01:48:37;36.95;;;16.30;;
3997;SDS011;61314;53.444;9.902;2022-12-24T01:51:07;42.33;;;17.38;;
3997;SDS011;61314;53.444;9.902;2022-12-24T01:53:38;41.75;;;17.30;;
3997;SDS011;61314;53.444;9.902;2022-12-24T01:56:07;41.90;;;17.10;;
3997;SDS011;61314;53.444;9.902;2022-12-24T01:58:35;45.92;;;18.83;;
3997;SDS011;61314;53.444;9.902;2022-12-24T02:01:03;39.10;;;17.05;;
3997;SDS011;61314;53.444;9.902;2022-12-24T02:03:30;40.95;;;19.00;;
3997;SDS011;61314;53.444;9.902;2022-12-24T02:05:57;38.65;;;16.35;;
3997;SDS011;61314;53.444;9.902;2022-12-24T02:08:24;43.20;;;18.67;;
3997;SDS011;61314;53.444;9.902;2022-12-24T02:11:11;52.42;;;19.65;;
3997;SDS011;61314;53.444;9.902;2022-12-24T02:13:39;43.97;;;18.77;;
3997;SDS011;61314;53.444;9.902;2022-12-24T02:21:29;43.17;;;17.35;;
3997;SDS011;61314;53.444;9.902;2022-12-24T02:26:43;47.88;;;16.63;;
3997;SDS011;61314;53.444;9.902;2022-12-24T02:29:45;42.60;;;19.27;;
3997;SDS011;61314;53.444;9.902;2022-12-24T02:32:20;45.83;;;19.33;;
3997;SDS011;61314;53.444;9.902;2022-12-24T02:37:48;50.72;;;19.70;;
3997;SDS011;61314;53.444;9.902;2022-12-24T02:40:21;48.70;;;20.17;;
3997;SDS011;61314;53.444;9.902;2022-12-24T02:42:50;36.47;;;17.50;;
3997;SDS011;61314;53.444;9.902;2022-12-24T02:45:21;52.17;;;18.80;;
3997;SDS011;61314;53.444;9.902;2022-12-24T02:47:48;46.95;;;19.73;;
3997;SDS011;61314;53.444;9.902;2022-12-24T02:50:16;41.67;;;17.13;;
3997;SDS011;61314;53.444;9.902;2022-12-24T02:52:44;51.78;;;18.48;;
3997;SDS011;61314;53.444;9.902;2022-12-24T02:55:16;54.25;;;18.65;;
3997;SDS011;61314;53.444;9.902;2022-12-24T03:00:24;50.78;;;17.67;;
3997;SDS011;61314;53.444;9.902;2022-12-24T03:02:57;51.50;;;17.75;;
3997;SDS011;61314;53.444;9.902;2022-12-24T03:05:36;42.05;;;17.50;;
3997;SDS011;61314;53.444;9.902;2022-12-24T03:11:04;46.53;;;18.80;;
3997;SDS011;61314;53.444;9.902;2022-12-24T03:13:33;45.90;;;17.27;;
3997;SDS011;61314;53.444;9.902;2022-12-24T03:16:02;47.33;;;19.23;;
3997;SDS011;61314;53.444;9.902;2022-12-24T03:18:30;50.85;;;17.90;;
3997;SDS011;61314;53.444;9.902;2022-12-24T03:21:17;50.47;;;18.17;;
3997;SDS011;61314;53.444;9.902;2022-12-24T03:23:46;54.70;;;19.00;;
3997;SDS011;61314;53.444;9.902;2022-12-24T03:26:15;39.05;;;16.30;;
3997;SDS011;61314;53.444;9.902;2022-12-24T03:28:43;44.15;;;17.33;;
3997;SDS011;61314;53.444;9.902;2022-12-24T03:31:11;44.33;;;18.08;;
3997;SDS011;61314;53.444;9.902;2022-12-24T03:33:38;35.05;;;15.25;;
3997;SDS011;61314;53.444;9.902;2022-12-24T03:36:06;45.70;;;16.73;;
3997;SDS011;61314;53.444;9.902;2022-12-24T03:38:33;35.00;;;14.13;;
3997;SDS011;61314;53.444;9.902;2022-12-24T03:41:00;43.10;;;15.70;;
3997;SDS011;61314;53.444;9.902;2022-12-24T03:43:27;39.70;;;15.57;;
3997;SDS011;61314;53.444;9.902;2022-12-24T03:45:54;43.40;;;16.15;;
3997;SDS011;61314;53.444;9.902;2022-12-24T03:48:21;40.20;;;15.57;;
3997;SDS011;61314;53.444;9.902;2022-12-24T03:50:57;37.67;;;14.40;;
3997;SDS011;61314;53.444;9.902;2022-12-24T03:53:24;39.17;;;16.13;;
3997;SDS011;61314;53.444;9.902;2022-12-24T03:55:51;38.88;;;13.30;;
3997;SDS011;61314;53.444;9.902;2022-12-24T03:58:18;35.88;;;16.33;;
3997;SDS011;61314;53.444;9.902;2022-12-24T04:00:45;33.80;;;14.52;;
3997;SDS011;61314;53.444;9.902;2022-12-24T04:03:12;33.85;;;13.32;;
3997;SDS011;61314;53.444;9.902;2022-12-24T04:05:39;33.58;;;12.75;;
3997;SDS011;61314;53.444;9.902;2022-12-24T04:08:06;37.72;;;13.85;;
3997;SDS011;61314;53.444;9.902;2022-12-24T04:10:33;41.50;;;15.48;;
3997;SDS011;61314;53.444;9.902;2022-12-24T04:13:00;35.70;;;14.40;;
3997;SDS011;61314;53.444;9.902;2022-12-24T04:15:27;29.10;;;12.90;;
3997;SDS011;61314;53.444;9.902;2022-12-24T04:17:54;37.05;;;13.73;;
3997;SDS011;61314;53.444;9.902;2022-12-24T04:20:21;43.72;;;14.35;;
3997;SDS011;61314;53.444;9.902;2022-12-24T04:22:48;30.17;;;13.25;;
3997;SDS011;61314;53.444;9.902;2022-12-24T04:25:15;30.23;;;12.05;;
3997;SDS011;61314;53.444;9.902;2022-12-24T04:27:42;36.78;;;12.80;;
3997;SDS011;61314;53.444;9.902;2022-12-24T04:30:09;32.83;;;13.02;;
3997;SDS011;61314;53.444;9.902;2022-12-24T04:32:36;27.80;;;12.45;;
3997;SDS011;61314;53.444;9.902;2022-12-24T04:35:03;32.47;;;14.00;;
3997;SDS011;61314;53.444;9.902;2022-12-24T04:37:32;25.58;;;11.27;;
3997;SDS011;61314;53.444;9.902;2022-12-24T04:39:58;34.28;;;13.20;;
3997;SDS011;61314;53.444;9.902;2022-12-24T04:42:25;30.30;;;12.70;;
3997;SDS011;61314;53.444;9.902;2022-12-24T04:44:52;34.00;;;14.60;;
3997;SDS011;61314;53.444;9.902;2022-12-24T04:47:19;29.35;;;12.50;;
3997;SDS011;61314;53.444;9.902;2022-12-24T04:49:46;26.40;;;11.95;;
3997;SDS011;61314;53.444;9.902;2022-12-24T04:52:14;28.35;;;13.40;;
3997;SDS011;61314;53.444;9.902;2022-12-24T04:54:41;28.10;;;11.77;;
3997;SDS011;61314;53.444;9.902;2022-12-24T04:57:08;26.70;;;12.40;;
3997;SDS011;61314;53.444;9.902;2022-12-24T04:59:35;33.30;;;12.60;;
3997;SDS011;61314;53.444;9.902;2022-12-24T05:02:02;30.88;;;13.65;;
3997;SDS011;61314;53.444;9.902;2022-12-24T05:04:30;30.50;;;13.25;;
3997;SDS011;61314;53.444;9.902;2022-12-24T05:06:57;27.30;;;11.98;;
3997;SDS011;61314;53.444;9.902;2022-12-24T05:09:24;36.20;;;13.48;;
3997;SDS011;61314;53.444;9.902;2022-12-24T05:11:51;29.85;;;14.15;;
3997;SDS011;61314;53.444;9.902;2022-12-24T05:14:20;30.67;;;13.02;;
3997;SDS011;61314;53.444;9.902;2022-12-24T05:16:47;28.40;;;12.18;;
3997;SDS011;61314;53.444;9.902;2022-12-24T05:19:14;27.33;;;11.70;;
3997;SDS011;61314;53.444;9.902;2022-12-24T05:21:42;25.88;;;12.10;;
3997;SDS011;61314;53.444;9.902;2022-12-24T05:24:09;28.67;;;11.52;;
3997;SDS011;61314;53.444;9.902;2022-12-24T05:26:56;37.47;;;12.80;;
3997;SDS011;61314;53.444;9.902;2022-12-24T05:29:24;35.63;;;13.23;;
3997;SDS011;61314;53.444;9.902;2022-12-24T05:31:51;29.38;;;12.90;;
3997;SDS011;61314;53.444;9.902;2022-12-24T05:34:18;34.45;;;13.05;;
3997;SDS011;61314;53.444;9.902;2022-12-24T05:36:45;25.02;;;11.50;;
3997;SDS011;61314;53.444;9.902;2022-12-24T05:39:12;31.25;;;12.02;;
3997;SDS011;61314;53.444;9.902;2022-12-24T05:41:41;29.88;;;13.88;;
3997;SDS011;61314;53.444;9.902;2022-12-24T05:44:08;27.80;;;12.02;;
3997;SDS011;61314;53.444;9.902;2022-12-24T05:46:35;28.23;;;11.70;;
3997;SDS011;61314;53.444;9.902;2022-12-24T05:49:03;30.20;;;11.80;;
3997;SDS011;61314;53.444;9.902;2022-12-24T05:51:30;33.40;;;14.25;;
3997;SDS011;61314;53.444;9.902;2022-12-24T05:53:57;29.45;;;12.73;;
3997;SDS011;61314;53.444;9.902;2022-12-24T05:56:24;38.13;;;14.13;;
3997;SDS011;61314;53.444;9.902;2022-12-24T05:58:51;30.17;;;12.90;;
3997;SDS011;61314;53.444;9.902;2022-12-24T06:01:19;32.63;;;12.63;;
3997;SDS011;61314;53.444;9.902;2022-12-24T06:03:47;28.30;;;12.95;;
3997;SDS011;61314;53.444;9.902;2022-12-24T06:06:21;30.65;;;13.57;;
3997;SDS011;61314;53.444;9.902;2022-12-24T06:08:49;31.23;;;13.93;;
3997;SDS011;61314;53.444;9.902;2022-12-24T06:11:17;29.40;;;13.82;;
3997;SDS011;61314;53.444;9.902;2022-12-24T06:13:44;35.28;;;13.60;;
3997;SDS011;61314;53.444;9.902;2022-12-24T06:16:15;38.72;;;14.57;;
3997;SDS011;61314;53.444;9.902;2022-12-24T06:18:42;32.40;;;13.55;;
3997;SDS011;61314;53.444;9.902;2022-12-24T06:21:10;37.72;;;14.45;;
3997;SDS011;61314;53.444;9.902;2022-12-24T06:23:37;30.80;;;12.57;;
3997;SDS011;61314;53.444;9.902;2022-12-24T06:26:05;33.03;;;14.23;;
3997;SDS011;61314;53.444;9.902;2022-12-24T06:28:35;28.27;;;12.93;;
3997;SDS011;61314;53.444;9.902;2022-12-24T06:31:03;29.25;;;13.00;;
3997;SDS011;61314;53.444;9.902;2022-12-24T06:33:31;31.70;;;12.82;;
3997;SDS011;61314;53.444;9.902;2022-12-24T06:35:58;23.90;;;12.88;;
3997;SDS011;61314;53.444;9.902;2022-12-24T06:38:25;30.17;;;13.13;;
3997;SDS011;61314;53.444;9.902;2022-12-24T06:40:52;28.70;;;12.63;;
3997;SDS011;61314;53.444;9.902;2022-12-24T06:43:20;30.27;;;12.68;;
3997;SDS011;61314;53.444;9.902;2022-12-24T06:45:48;27.17;;;12.40;;
3997;SDS011;61314;53.444;9.902;2022-12-24T06:48:15;30.40;;;13.40;;
3997;SDS011;61314;53.444;9.902;2022-12-24T06:50:42;34.63;;;14.35;;
3997;SDS011;61314;53.444;9.902;2022-12-24T06:53:09;28.33;;;12.57;;
3997;SDS011;61314;53.444;9.902;2022-12-24T06:55:36;27.13;;;12.68;;
3997;SDS011;61314;53.444;9.902;2022-12-24T06:58:03;28.63;;;11.77;;
3997;SDS011;61314;53.444;9.902;2022-12-24T07:00:30;28.33;;;12.98;;
3997;SDS011;61314;53.444;9.902;2022-12-24T07:02:57;22.95;;;10.80;;
3997;SDS011;61314;53.444;9.902;2022-12-24T07:05:24;31.35;;;14.20;;
3997;SDS011;61314;53.444;9.902;2022-12-24T07:07:51;26.35;;;11.38;;
3997;SDS011;61314;53.444;9.902;2022-12-24T07:10:18;24.55;;;11.57;;
3997;SDS011;61314;53.444;9.902;2022-12-24T07:12:46;26.90;;;12.35;;
3997;SDS011;61314;53.444;9.902;2022-12-24T07:15:14;32.83;;;12.18;;
3997;SDS011;61314;53.444;9.902;2022-12-24T07:17:42;26.15;;;11.43;;
3997;SDS011;61314;53.444;9.902;2022-12-24T07:20:10;30.40;;;11.30;;
3997;SDS011;61314;53.444;9.902;2022-12-24T07:22:38;26.65;;;11.40;;
3997;SDS011;61314;53.444;9.902;2022-12-24T07:25:05;25.73;;;11.32;;
3997;SDS011;61314;53.444;9.902;2022-12-24T07:27:32;26.83;;;11.32;;
3997;SDS011;61314;53.444;9.902;2022-12-24T07:29:59;20.70;;;10.00;;
3997;SDS011;61314;53.444;9.902;2022-12-24T07:32:50;18.95;;;9.70;;
3997;SDS011;61314;53.444;9.902;2022-12-24T07:35:17;22.77;;;10.18;;
3997;SDS011;61314;53.444;9.902;2022-12-24T07:37:44;14.32;;;8.25;;
3997;SDS011;61314;53.444;9.902;2022-12-24T07:40:11;12.52;;;7.35;;
3997;SDS011;61314;53.444;9.902;2022-12-24T07:42:38;19.15;;;8.57;;
3997;SDS011;61314;53.444;9.902;2022-12-24T07:45:05;16.98;;;8.60;;
3997;SDS011;61314;53.444;9.902;2022-12-24T07:47:33;17.25;;;8.00;;
3997;SDS011;61314;53.444;9.902;2022-12-24T07:50:00;20.92;;;9.32;;
3997;SDS011;61314;53.444;9.902;2022-12-24T07:52:27;14.23;;;8.32;;
3997;SDS011;61314;53.444;9.902;2022-12-24T07:54:54;23.63;;;8.43;;
3997;SDS011;61314;53.444;9.902;2022-12-24T07:57:21;21.77;;;10.50;;
3997;SDS011;61314;53.444;9.902;2022-12-24T07:59:48;21.80;;;12.70;;
3997;SDS011;61314;53.444;9.902;2022-12-24T08:02:15;19.80;;;11.27;;
3997;SDS011;61314;53.444;9.902;2022-12-24T08:04:44;23.17;;;9.63;;
3997;SDS011;61314;53.444;9.902;2022-12-24T08:07:11;16.98;;;8.02;;
3997;SDS011;61314;53.444;9.902;2022-12-24T08:09:38;16.35;;;7.07;;
3997;SDS011;61314;53.444;9.902;2022-12-24T08:12:05;12.35;;;7.43;;
3997;SDS011;61314;53.444;9.902;2022-12-24T08:14:32;14.63;;;8.30;;
3997;SDS011;61314;53.444;9.902;2022-12-24T08:16:59;16.20;;;8.40;;
3997;SDS011;61314;53.444;9.902;2022-12-24T08:19:26;15.90;;;7.40;;
3997;SDS011;61314;53.444;9.902;2022-12-24T08:21:53;11.55;;;7.47;;
3997;SDS011;61314;53.444;9.902;2022-12-24T08:24:20;14.63;;;7.95;;
3997;SDS011;61314;53.444;9.902;2022-12-24T08:26:47;18.05;;;8.13;;
3997;SDS011;61314;53.444;9.902;2022-12-24T08:29:14;15.75;;;7.90;;
3997;SDS011;61314;53.444;9.902;2022-12-24T08:31:41;15.88;;;8.27;;
3997;SDS011;61314;53.444;9.902;2022-12-24T08:34:09;13.80;;;8.05;;
3997;SDS011;61314;53.444;9.902;2022-12-24T08:36:36;18.30;;;8.70;;
3997;SDS011;61314;53.444;9.902;2022-12-24T08:39:03;16.75;;;7.97;;
3997;SDS011;61314;53.444;9.902;2022-12-24T08:41:30;15.70;;;7.45;;
3997;SDS011;61314;53.444;9.902;2022-12-24T08:43:58;14.13;;;8.13;;
3997;SDS011;61314;53.444;9.902;2022-12-24T08:46:25;17.02;;;8.05;;
3997;SDS011;61314;53.444;9.902;2022-12-24T08:48:52;15.57;;;7.60;;
3997;SDS011;61314;53.444;9.902;2022-12-24T08:51:19;14.27;;;8.85;;
3997;SDS011;61314;53.444;9.902;2022-12-24T08:53:46;18.55;;;8.05;;
3997;SDS011;61314;53.444;9.902;2022-12-24T08:56:13;17.95;;;9.35;;
3997;SDS011;61314;53.444;9.902;2022-12-24T08:58:40;20.33;;;10.48;;
3997;SDS011;61314;53.444;9.902;2022-12-24T09:01:15;14.70;;;8.80;;
3997;SDS011;61314;53.444;9.902;2022-12-24T09:03:42;22.02;;;9.60;;
3997;SDS011;61314;53.444;9.902;2022-12-24T09:06:10;20.27;;;9.80;;
3997;SDS011;61314;53.444;9.902;2022-12-24T09:08:37;10.88;;;7.38;;
3997;SDS011;61314;53.444;9.902;2022-12-24T09:11:08;13.75;;;8.20;;
3997;SDS011;61314;53.444;9.902;2022-12-24T09:13:35;17.15;;;9.07;;
3997;SDS011;61314;53.444;9.902;2022-12-24T09:16:03;16.38;;;8.63;;
3997;SDS011;61314;53.444;9.902;2022-12-24T09:18:30;19.20;;;8.90;;
3997;SDS011;61314;53.444;9.902;2022-12-24T09:21:01;20.08;;;9.85;;
3997;SDS011;61314;53.444;9.902;2022-12-24T09:23:29;16.25;;;8.15;;
3997;SDS011;61314;53.444;9.902;2022-12-24T09:25:56;21.10;;;10.15;;
3997;SDS011;61314;53.444;9.902;2022-12-24T09:28:23;19.55;;;10.25;;
3997;SDS011;61314;53.444;9.902;2022-12-24T09:30:54;17.23;;;9.48;;
3997;SDS011;61314;53.444;9.902;2022-12-24T09:33:21;18.25;;;9.68;;
3997;SDS011;61314;53.444;9.902;2022-12-24T09:35:51;18.90;;;9.02;;
3997;SDS011;61314;53.444;9.902;2022-12-24T09:38:19;16.95;;;8.95;;
3997;SDS011;61314;53.444;9.902;2022-12-24T09:40:46;16.35;;;8.35;;
3997;SDS011;61314;53.444;9.902;2022-12-24T09:43:18;12.30;;;7.50;;
3997;SDS011;61314;53.444;9.902;2022-12-24T09:45:57;15.60;;;9.20;;
3997;SDS011;61314;53.444;9.902;2022-12-24T09:48:27;14.88;;;8.65;;
3997;SDS011;61314;53.444;9.902;2022-12-24T09:51:08;18.42;;;9.35;;
3997;SDS011;61314;53.444;9.902;2022-12-24T09:53:47;12.45;;;7.47;;
3997;SDS011;61314;53.444;9.902;2022-12-24T09:56:16;15.90;;;8.25;;
3997;SDS011;61314;53.444;9.902;2022-12-24T09:58:48;13.98;;;7.70;;
3997;SDS011;61314;53.444;9.902;2022-12-24T10:01:16;13.77;;;8.02;;
3997;SDS011;61314;53.444;9.902;2022-12-24T10:03:44;15.93;;;8.02;;
3997;SDS011;61314;53.444;9.902;2022-12-24T10:06:23;13.57;;;7.72;;
3997;SDS011;61314;53.444;9.902;2022-12-24T10:08:58;15.23;;;7.70;;
3997;SDS011;61314;53.444;9.902;2022-12-24T10:11:32;14.98;;;7.85;;
3997;SDS011;61314;53.444;9.902;2022-12-24T10:14:03;14.60;;;8.55;;
3997;SDS011;61314;53.444;9.902;2022-12-24T10:24:25;15.70;;;9.10;;
3997;SDS011;61314;53.444;9.902;2022-12-24T10:26:58;25.40;;;10.10;;
3997;SDS011;61314;53.444;9.902;2022-12-24T10:29:34;20.23;;;11.85;;
3997;SDS011;61314;53.444;9.902;2022-12-24T10:34:37;23.17;;;11.38;;
3997;SDS011;61314;53.444;9.902;2022-12-24T10:37:13;23.33;;;13.63;;
3997;SDS011;61314;53.444;9.902;2022-12-24T10:39:41;21.42;;;11.90;;
3997;SDS011;61314;53.444;9.902;2022-12-24T10:42:09;18.05;;;10.43;;
3997;SDS011;61314;53.444;9.902;2022-12-24T10:44:37;15.90;;;10.43;;
3997;SDS011;61314;53.444;9.902;2022-12-24T10:47:04;21.80;;;10.73;;
3997;SDS011;61314;53.444;9.902;2022-12-24T10:52:04;18.17;;;10.25;;
3997;SDS011;61314;53.444;9.902;2022-12-24T10:54:32;18.08;;;9.98;;
3997;SDS011;61314;53.444;9.902;2022-12-24T10:57:05;20.17;;;10.00;;
3997;SDS011;61314;53.444;9.902;2022-12-24T11:01:59;29.50;;;11.77;;
3997;SDS011;61314;53.444;9.902;2022-12-24T11:04:28;39.05;;;13.30;;
3997;SDS011;61314;53.444;9.902;2022-12-24T11:07:00;35.95;;;14.18;;
3997;SDS011;61314;53.444;9.902;2022-12-24T11:09:31;53.92;;;16.40;;
3997;SDS011;61314;53.444;9.902;2022-12-24T11:11:59;76.63;;;19.90;;
3997;SDS011;61314;53.444;9.902;2022-12-24T11:14:35;73.30;;;21.83;;
3997;SDS011;61314;53.444;9.902;2022-12-24T11:17:03;60.75;;;19.27;;
3997;SDS011;61314;53.444;9.902;2022-12-24T11:19:31;83.40;;;20.40;;
3997;SDS011;61314;53.444;9.902;2022-12-24T11:22:03;57.58;;;18.75;;
3997;SDS011;61314;53.444;9.902;2022-12-24T11:24:34;56.38;;;19.63;;
3997;SDS011;61314;53.444;9.902;2022-12-24T11:27:26;49.10;;;18.38;;
3997;SDS011;61314;53.444;9.902;2022-12-24T11:30:36;55.40;;;19.45;;
3997;SDS011;61314;53.444;9.902;2022-12-24T11:32:48;78.47;;;19.10;;
3997;SDS011;61314;53.444;9.902;2022-12-24T11:35:22;72.57;;;19.42;;
3997;SDS011;61314;53.444;9.902;2022-12-24T11:40:30;62.53;;;18.40;;
3997;SDS011;61314;53.444;9.902;2022-12-24T11:42:58;71.18;;;18.23;;
3997;SDS011;61314;53.444;9.902;2022-12-24T11:45:26;58.92;;;16.92;;
3997;SDS011;61314;53.444;9.902;2022-12-24T11:47:54;78.78;;;20.45;;
3997;SDS011;61314;53.444;9.902;2022-12-24T11:52:49;69.38;;;16.27;;
3997;SDS011;61314;53.444;9.902;2022-12-24T11:55:20;92.72;;;18.98;;
3997;SDS011;61314;53.444;9.902;2022-12-24T11:58:50;82.15;;;17.88;;
3997;SDS011;61314;53.444;9.902;2022-12-24T12:00:45;71.75;;;16.13;;
3997;SDS011;61314;53.444;9.902;2022-12-24T12:03:32;90.93;;;19.23;;
3997;SDS011;61314;53.444;9.902;2022-12-24T12:06:01;95.30;;;15.88;;
3997;SDS011;61314;53.444;9.902;2022-12-24T12:08:29;95.75;;;18.52;;
3997;SDS011;61314;53.444;9.902;2022-12-24T12:10:57;82.32;;;16.67;;
3997;SDS011;61314;53.444;9.902;2022-12-24T12:13:29;68.05;;;14.57;;
3997;SDS011;61314;53.444;9.902;2022-12-24T12:18:31;69.00;;;13.48;;
3997;SDS011;61314;53.444;9.902;2022-12-24T12:21:01;67.68;;;11.43;;
3997;SDS011;61314;53.444;9.902;2022-12-24T12:23:33;63.13;;;13.13;;
3997;SDS011;61314;53.444;9.902;2022-12-24T12:26:09;63.88;;;13.40;;
3997;SDS011;61314;53.444;9.902;2022-12-24T12:28:43;59.90;;;12.93;;
3997;SDS011;61314;53.444;9.902;2022-12-24T12:31:16;73.90;;;12.40;;
3997;SDS011;61314;53.444;9.902;2022-12-24T12:36:11;67.32;;;13.73;;
3997;SDS011;61314;53.444;9.902;2022-12-24T12:38:41;58.40;;;10.75;;
3997;SDS011;61314;53.444;9.902;2022-12-24T12:41:15;60.47;;;11.10;;
3997;SDS011;61314;53.444;9.902;2022-12-24T12:43:55;51.92;;;10.20;;
3997;SDS011;61314;53.444;9.902;2022-12-24T12:46:32;57.97;;;10.73;;
3997;SDS011;61314;53.444;9.902;2022-12-24T12:51:43;49.95;;;9.30;;
3997;SDS011;61314;53.444;9.902;2022-12-24T12:56:51;75.60;;;11.68;;
3997;SDS011;61314;53.444;9.902;2022-12-24T13:02:00;53.05;;;9.65;;
3997;SDS011;61314;53.444;9.902;2022-12-24T13:04:38;44.35;;;8.93;;
3997;SDS011;61314;53.444;9.902;2022-12-24T13:07:13;40.10;;;8.43;;
3997;SDS011;61314;53.444;9.902;2022-12-24T13:12:46;55.17;;;8.70;;
3997;SDS011;61314;53.444;9.902;2022-12-24T13:15:32;37.83;;;7.55;;
3997;SDS011;61314;53.444;9.902;2022-12-24T13:18:05;43.13;;;8.32;;
3997;SDS011;61314;53.444;9.902;2022-12-24T13:20:41;38.55;;;7.85;;
3997;SDS011;61314;53.444;9.902;2022-12-24T13:23:12;41.60;;;7.63;;
3997;SDS011;61314;53.444;9.902;2022-12-24T13:25:41;42.17;;;7.50;;
3997;SDS011;61314;53.444;9.902;2022-12-24T13:30:51;68.18;;;9.80;;
3997;SDS011;61314;53.444;9.902;2022-12-24T13:36:14;57.35;;;8.80;;
3997;SDS011;61314;53.444;9.902;2022-12-24T13:46:51;70.20;;;8.90;;
3997;SDS011;61314;53.444;9.902;2022-12-24T13:49:36;39.97;;;7.68;;
3997;SDS011;61314;53.444;9.902;2022-12-24T13:52:16;43.38;;;8.55;;
3997;SDS011;61314;53.444;9.902;2022-12-24T13:54:48;60.05;;;8.20;;
3997;SDS011;61314;53.444;9.902;2022-12-24T13:59:54;44.42;;;7.95;;
3997;SDS011;61314;53.444;9.902;2022-12-24T14:02:22;48.72;;;10.00;;
3997;SDS011;61314;53.444;9.902;2022-12-24T14:04:50;35.30;;;8.52;;
3997;SDS011;61314;53.444;9.902;2022-12-24T14:07:17;40.60;;;8.25;;
3997;SDS011;61314;53.444;9.902;2022-12-24T14:09:47;41.53;;;7.80;;
3997;SDS011;61314;53.444;9.902;2022-12-24T14:12:27;48.15;;;7.78;;
3997;SDS011;61314;53.444;9.902;2022-12-24T14:14:55;35.97;;;7.28;;
3997;SDS011;61314;53.444;9.902;2022-12-24T14:17:26;39.58;;;7.38;;
3997;SDS011;61314;53.444;9.902;2022-12-24T14:19:59;32.65;;;8.70;;
3997;SDS011;61314;53.444;9.902;2022-12-24T14:22:29;31.73;;;7.32;;
3997;SDS011;61314;53.444;9.902;2022-12-24T14:24:58;32.88;;;7.88;;
3997;SDS011;61314;53.444;9.902;2022-12-24T14:27:32;34.88;;;7.45;;
3997;SDS011;61314;53.444;9.902;2022-12-24T14:30:22;38.22;;;9.05;;
3997;SDS011;61314;53.444;9.902;2022-12-24T14:32:50;29.88;;;7.57;;
3997;SDS011;61314;53.444;9.902;2022-12-24T14:37:55;40.25;;;9.90;;
3997;SDS011;61314;53.444;9.902;2022-12-24T14:40:29;35.63;;;8.20;;
3997;SDS011;61314;53.444;9.902;2022-12-24T14:43:04;37.53;;;8.40;;
3997;SDS011;61314;53.444;9.902;2022-12-24T14:45:39;30.63;;;8.18;;
3997;SDS011;61314;53.444;9.902;2022-12-24T14:48:12;33.47;;;8.45;;
3997;SDS011;61314;53.444;9.902;2022-12-24T14:56:08;41.22;;;12.73;;
3997;SDS011;61314;53.444;9.902;2022-12-24T14:58:35;58.25;;;10.10;;
3997;SDS011;61314;53.444;9.902;2022-12-24T15:01:17;46.63;;;11.30;;
3997;SDS011;61314;53.444;9.902;2022-12-24T15:03:44;43.75;;;9.55;;
3997;SDS011;61314;53.444;9.902;2022-12-24T15:06:12;50.13;;;9.75;;
3997;SDS011;61314;53.444;9.902;2022-12-24T15:08:44;51.47;;;13.90;;
3997;SDS011;61314;53.444;9.902;2022-12-24T15:11:18;40.75;;;10.88;;
3997;SDS011;61314;53.444;9.902;2022-12-24T15:13:47;53.33;;;12.68;;
3997;SDS011;61314;53.444;9.902;2022-12-24T15:19:12;47.42;;;11.55;;
3997;SDS011;61314;53.444;9.902;2022-12-24T15:21:44;47.03;;;12.63;;
3997;SDS011;61314;53.444;9.902;2022-12-24T15:26:54;42.65;;;11.90;;
3997;SDS011;61314;53.444;9.902;2022-12-24T15:29:23;43.40;;;12.98;;
3997;SDS011;61314;53.444;9.902;2022-12-24T15:31:51;106.15;;;36.53;;
3997;SDS011;61314;53.444;9.902;2022-12-24T15:34:25;72.07;;;27.23;;
3997;SDS011;61314;53.444;9.902;2022-12-24T15:36:59;60.33;;;20.90;;
3997;SDS011;61314;53.444;9.902;2022-12-24T15:39:27;77.00;;;41.13;;
3997;SDS011;61314;53.444;9.902;2022-12-24T15:41:54;53.75;;;19.77;;
3997;SDS011;61314;53.444;9.902;2022-12-24T15:44:41;37.97;;;17.05;;
3997;SDS011;61314;53.444;9.902;2022-12-24T15:47:14;50.55;;;21.98;;
3997;SDS011;61314;53.444;9.902;2022-12-24T15:49:43;43.60;;;15.70;;
3997;SDS011;61314;53.444;9.902;2022-12-24T15:52:11;37.55;;;14.50;;
3997;SDS011;61314;53.444;9.902;2022-12-24T15:54:43;41.08;;;15.55;;
3997;SDS011;61314;53.444;9.902;2022-12-24T15:57:21;88.13;;;37.72;;
3997;SDS011;61314;53.444;9.902;2022-12-24T15:59:49;69.95;;;24.70;;
3997;SDS011;61314;53.444;9.902;2022-12-24T16:04:50;105.78;;;41.28;;
3997;SDS011;61314;53.444;9.902;2022-12-24T16:07:24;58.05;;;21.02;;
3997;SDS011;61314;53.444;9.902;2022-12-24T16:10:24;46.95;;;17.45;;
3997;SDS011;61314;53.444;9.902;2022-12-24T16:12:51;43.03;;;15.38;;
3997;SDS011;61314;53.444;9.902;2022-12-24T16:15:18;64.05;;;16.13;;
3997;SDS011;61314;53.444;9.902;2022-12-24T16:17:48;60.05;;;16.67;;
3997;SDS011;61314;53.444;9.902;2022-12-24T16:20:21;79.45;;;28.08;;